Time;durP1;ratioP1;P1;durP2;ratioP2;P2;SDS_P1;SDS_P2;PMS_P1;PMS_P2;Temp;Humidity;BMP_temperature;BMP_pressure;BME280_temperature;BME280_humidity;BME280_pressure;Samples;Min_cycle;Max_cycle;Signal;HPM_P1;HPM_P2
2021/10/05 00:00:10;;;;;;;4.22;0.70;;;11.50;99.90;;;;;;5079026;28;20044;-67
2021/10/05 00:02:38;;;;;;;3.15;0.88;;;11.50;99.90;;;;;;5079774;28;20173;-67
2021/10/05 00:05:05;;;;;;;5.07;2.00;;;11.40;99.90;;;;;;5080836;28;20039;-67
2021/10/05 00:07:31;;;;;;;7.97;1.20;;;11.40;99.90;;;;;;5078206;28;20118;-67
2021/10/05 00:09:57;;;;;;;6.65;1.60;;;11.40;99.90;;;;;;5078098;28;20083;-67
2021/10/05 00:12:23;;;;;;;6.07;1.23;;;11.40;99.90;;;;;;5079148;28;20039;-67
2021/10/05 00:14:50;;;;;;;7.90;1.13;;;11.40;99.90;;;;;;5079242;28;20684;-68
2021/10/05 00:17:18;;;;;;;3.70;0.93;;;11.40;99.90;;;;;;5075783;28;20059;-67
2021/10/05 00:19:43;;;;;;;2.42;0.55;;;11.30;99.90;;;;;;5079869;28;20426;-67
2021/10/05 00:22:09;;;;;;;3.20;0.60;;;11.30;99.90;;;;;;5078137;28;20126;-67
2021/10/05 00:24:35;;;;;;;3.47;0.80;;;11.40;99.90;;;;;;5080835;28;20681;-67
2021/10/05 00:27:00;;;;;;;4.75;1.00;;;11.30;99.90;;;;;;5079160;28;20102;-67
2021/10/05 00:29:26;;;;;;;3.22;0.82;;;11.30;99.90;;;;;;5076899;28;20109;-67
2021/10/05 00:31:52;;;;;;;5.30;0.98;;;11.30;99.90;;;;;;5076749;28;20122;-67
2021/10/05 00:34:17;;;;;;;5.28;0.60;;;11.30;99.90;;;;;;5081183;28;20221;-67
2021/10/05 00:36:43;;;;;;;2.42;0.60;;;11.30;99.90;;;;;;5108630;27;20051;-67
2021/10/05 00:39:08;;;;;;;3.28;0.60;;;11.30;99.90;;;;;;5077099;28;20040;-67
2021/10/05 00:41:34;;;;;;;6.00;0.65;;;11.30;99.90;;;;;;5081197;28;20378;-67
2021/10/05 00:44:00;;;;;;;5.20;0.80;;;11.30;99.90;;;;;;5110343;27;20045;-67
2021/10/05 00:46:27;;;;;;;3.45;0.98;;;11.30;99.90;;;;;;5109373;27;20040;-68
2021/10/05 00:48:54;;;;;;;2.50;0.68;;;11.20;99.90;;;;;;5075796;28;20036;-67
2021/10/05 00:51:21;;;;;;;2.83;0.70;;;11.20;99.90;;;;;;5076575;28;20040;-67
2021/10/05 00:53:48;;;;;;;4.30;0.63;;;11.20;99.90;;;;;;5079477;28;20085;-67
2021/10/05 00:56:13;;;;;;;6.85;0.80;;;11.20;99.90;;;;;;5078029;28;20039;-67
2021/10/05 00:58:39;;;;;;;4.25;0.70;;;11.20;99.90;;;;;;5075985;28;20052;-67
2021/10/05 01:01:05;;;;;;;3.45;0.80;;;11.20;99.90;;;;;;5080555;28;20032;-67
2021/10/05 01:03:30;;;;;;;3.33;0.77;;;11.20;99.90;;;;;;5074851;28;20036;-67
2021/10/05 01:05:56;;;;;;;3.25;0.98;;;11.20;99.90;;;;;;5075203;28;20036;-67
2021/10/05 01:08:22;;;;;;;4.35;0.98;;;11.10;99.90;;;;;;5080206;28;20039;-67
2021/10/05 01:10:48;;;;;;;4.60;1.05;;;11.10;99.90;;;;;;5077296;28;20586;-67
2021/10/05 01:13:14;;;;;;;6.63;1.92;;;11.20;99.90;;;;;;5080179;28;20071;-67
2021/10/05 01:15:39;;;;;;;4.10;1.20;;;11.10;99.90;;;;;;5078947;28;20127;-67
2021/10/05 01:18:05;;;;;;;5.72;1.52;;;11.10;99.90;;;;;;5079422;28;20043;-67
2021/10/05 01:20:33;;;;;;;1.88;0.70;;;11.10;99.90;;;;;;5078721;28;20029;-67
2021/10/05 01:22:59;;;;;;;10.80;1.02;;;11.00;99.90;;;;;;5079293;28;20126;-67
2021/10/05 01:25:24;;;;;;;6.53;1.08;;;10.90;99.90;;;;;;5075762;28;20057;-67
2021/10/05 01:27:51;;;;;;;5.82;1.20;;;10.90;99.90;;;;;;5075483;28;20032;-67
2021/10/05 01:30:20;;;;;;;6.38;1.13;;;10.90;99.90;;;;;;5079044;28;20161;-67
2021/10/05 01:32:47;;;;;;;4.53;1.17;;;10.90;99.90;;;;;;5076837;28;20048;-67
2021/10/05 01:35:13;;;;;;;6.78;1.92;;;10.90;99.90;;;;;;5075572;28;20171;-67
2021/10/05 01:37:39;;;;;;;6.85;1.55;;;10.90;99.90;;;;;;5075248;28;20040;-67
2021/10/05 01:40:07;;;;;;;4.38;1.40;;;10.90;99.90;;;;;;5078009;28;20043;-67
2021/10/05 01:42:33;;;;;;;5.95;1.35;;;10.80;99.90;;;;;;5078392;28;20044;-67
2021/10/05 01:44:58;;;;;;;4.70;1.42;;;10.80;99.90;;;;;;5074432;28;20043;-67
2021/10/05 01:47:24;;;;;;;4.05;1.48;;;10.70;99.90;;;;;;5077330;28;20048;-67
2021/10/05 01:49:50;;;;;;;5.43;1.83;;;10.70;99.90;;;;;;5074479;28;20045;-67
2021/10/05 01:52:16;;;;;;;3.33;1.60;;;10.70;99.90;;;;;;5079545;28;20113;-67
2021/10/05 01:54:41;;;;;;;7.20;2.28;;;10.60;99.90;;;;;;5076768;28;20717;-67
2021/10/05 01:57:07;;;;;;;6.15;1.70;;;10.60;99.90;;;;;;5078763;28;20052;-67
2021/10/05 01:59:33;;;;;;;5.68;1.40;;;10.60;99.90;;;;;;5078387;28;20060;-67
2021/10/05 02:02:00;;;;;;;5.55;1.88;;;10.60;99.90;;;;;;5083987;28;20072;-67
2021/10/05 02:04:25;;;;;;;4.60;1.92;;;10.60;99.90;;;;;;5082034;28;20079;-67
2021/10/05 02:06:51;;;;;;;4.85;1.55;;;10.60;99.90;;;;;;5080271;28;20550;-67
2021/10/05 02:09:17;;;;;;;8.63;1.92;;;10.60;99.90;;;;;;5080988;28;20044;-67
2021/10/05 02:11:42;;;;;;;7.97;1.67;;;10.60;99.90;;;;;;5081691;28;20036;-67
2021/10/05 02:14:08;;;;;;;7.53;2.00;;;10.60;99.90;;;;;;5080343;28;20112;-67
2021/10/05 02:16:35;;;;;;;7.85;1.65;;;10.60;99.90;;;;;;5076336;28;20043;-67
2021/10/05 02:19:01;;;;;;;5.53;1.85;;;10.50;99.90;;;;;;5079214;28;20029;-67
2021/10/05 02:21:26;;;;;;;4.85;1.75;;;10.50;99.90;;;;;;5078408;28;20363;-67
2021/10/05 02:26:37;;;;;;;11.05;2.22;;;10.40;99.90;;;;;;5082855;28;20044;-67
2021/10/05 02:29:03;;;;;;;4.57;2.25;;;10.40;99.90;;;;;;5085168;28;20040;-67
2021/10/05 02:31:29;;;;;;;6.13;2.17;;;10.40;99.90;;;;;;5082298;28;20048;-67
2021/10/05 02:33:55;;;;;;;6.35;2.58;;;10.40;99.90;;;;;;5115143;27;20037;-67
2021/10/05 02:36:21;;;;;;;7.30;2.83;;;10.40;99.90;;;;;;5079973;28;20094;-67
2021/10/05 02:38:47;;;;;;;5.50;2.15;;;10.50;99.90;;;;;;5083809;28;20537;-67
2021/10/05 02:41:12;;;;;;;7.53;1.92;;;10.50;99.90;;;;;;5087646;28;20032;-67
2021/10/05 02:43:39;;;;;;;5.45;2.38;;;10.50;99.90;;;;;;5087575;28;20036;-67
2021/10/05 02:46:05;;;;;;;7.28;2.47;;;10.40;99.90;;;;;;5079804;28;20055;-67
2021/10/05 02:48:30;;;;;;;6.72;2.33;;;10.60;99.90;;;;;;5085825;28;20032;-67
2021/10/05 02:50:56;;;;;;;6.43;2.38;;;10.40;99.90;;;;;;5082753;28;20216;-67
2021/10/05 02:53:22;;;;;;;6.70;2.35;;;10.40;99.90;;;;;;5085332;28;20032;-67
2021/10/05 02:55:49;;;;;;;4.70;2.25;;;10.40;99.90;;;;;;5082450;28;20044;-67
2021/10/05 02:58:16;;;;;;;6.13;2.42;;;10.40;99.90;;;;;;5083770;28;20116;-67
2021/10/05 03:00:43;;;;;;;7.82;2.35;;;10.40;99.90;;;;;;5086706;28;20040;-67
2021/10/05 03:03:08;;;;;;;5.55;2.42;;;10.30;99.90;;;;;;5089104;28;20044;-67
2021/10/05 03:05:34;;;;;;;8.63;2.90;;;10.30;99.90;;;;;;5087711;28;20411;-67
2021/10/05 03:08:00;;;;;;;4.85;2.15;;;10.20;99.90;;;;;;5082082;28;20047;-67
2021/10/05 03:10:26;;;;;;;7.32;2.80;;;10.10;99.90;;;;;;5085778;28;20047;-67
2021/10/05 03:12:51;;;;;;;5.07;2.33;;;10.10;99.90;;;;;;5084624;28;20089;-67
2021/10/05 03:15:17;;;;;;;4.22;2.47;;;10.10;99.90;;;;;;5084950;28;20046;-67
2021/10/05 03:17:44;;;;;;;3.85;2.22;;;10.10;99.90;;;;;;5080850;28;20044;-67
2021/10/05 03:20:09;;;;;;;7.45;2.40;;;10.00;99.90;;;;;;5083692;28;20071;-67
2021/10/05 03:22:36;;;;;;;4.75;2.75;;;9.90;99.90;;;;;;5081953;28;20491;-67
2021/10/05 03:25:03;;;;;;;5.78;3.10;;;9.90;99.90;;;;;;5077768;28;20100;-67
2021/10/05 03:27:29;;;;;;;5.35;2.55;;;9.80;99.90;;;;;;5083436;28;20040;-67
2021/10/05 03:29:54;;;;;;;5.15;2.50;;;9.80;99.90;;;;;;5087595;28;20035;-67
2021/10/05 03:32:20;;;;;;;4.32;3.13;;;9.80;99.90;;;;;;5084393;28;20041;-67
2021/10/05 03:34:45;;;;;;;8.30;3.72;;;9.80;99.90;;;;;;5081110;28;20052;-67
2021/10/05 03:37:11;;;;;;;4.65;3.00;;;9.70;99.90;;;;;;5085203;28;20040;-67
2021/10/05 03:39:37;;;;;;;7.38;3.40;;;9.70;99.90;;;;;;5079982;28;20080;-67
2021/10/05 03:42:03;;;;;;;7.68;3.78;;;9.60;99.90;;;;;;5086024;28;20649;-67
2021/10/05 03:44:28;;;;;;;10.80;4.50;;;9.60;99.90;;;;;;5081045;28;20401;-67
2021/10/05 03:46:54;;;;;;;11.73;4.18;;;9.60;99.90;;;;;;5080958;28;20044;-67
2021/10/05 03:49:20;;;;;;;4.20;3.50;;;9.60;99.90;;;;;;5081276;28;20062;-67
2021/10/05 03:51:47;;;;;;;10.60;5.20;;;9.60;99.90;;;;;;5083938;28;20047;-67
2021/10/05 03:54:13;;;;;;;7.22;4.28;;;9.60;99.90;;;;;;5082419;28;20036;-67
2021/10/05 03:56:39;;;;;;;6.07;4.13;;;9.60;99.90;;;;;;5082343;28;20058;-67
2021/10/05 03:59:05;;;;;;;6.32;4.78;;;9.50;99.90;;;;;;5113196;27;20123;-67
2021/10/05 04:01:30;;;;;;;5.57;4.38;;;9.60;99.90;;;;;;5082036;28;20124;-67
2021/10/05 04:03:56;;;;;;;12.18;5.25;;;9.60;99.90;;;;;;5082723;28;20159;-67
2021/10/05 04:06:22;;;;;;;7.38;4.78;;;9.60;99.90;;;;;;5081098;28;20043;-67
2021/10/05 04:08:47;;;;;;;8.82;5.70;;;9.60;99.90;;;;;;5083865;28;20478;-67
2021/10/05 04:11:13;;;;;;;8.00;6.10;;;9.50;99.90;;;;;;5083325;28;20051;-67
2021/10/05 04:13:40;;;;;;;6.22;5.63;;;9.60;99.90;;;;;;5079661;28;20044;-67
2021/10/05 04:16:06;;;;;;;6.55;4.65;;;9.60;99.90;;;;;;5078043;28;20044;-67
2021/10/05 04:18:31;;;;;;;8.45;5.50;;;9.50;99.90;;;;;;5080264;28;20045;-67
2021/10/05 04:20:57;;;;;;;10.07;6.03;;;9.60;99.90;;;;;;5085029;28;20038;-67
2021/10/05 04:23:23;;;;;;;11.63;5.45;;;9.50;99.90;;;;;;5078500;28;20074;-67
2021/10/05 04:25:49;;;;;;;6.03;4.72;;;9.50;99.90;;;;;;5079863;28;20055;-67
2021/10/05 04:28:14;;;;;;;7.68;5.30;;;9.50;99.90;;;;;;5076130;28;20390;-67
2021/10/05 04:30:40;;;;;;;6.95;5.60;;;9.50;99.90;;;;;;5075128;28;20090;-67
2021/10/05 04:33:06;;;;;;;6.28;5.00;;;9.50;99.90;;;;;;5081730;28;20040;-67
2021/10/05 04:35:32;;;;;;;7.30;5.70;;;9.50;99.90;;;;;;5084072;28;20115;-67
2021/10/05 04:37:58;;;;;;;10.88;5.95;;;9.50;99.90;;;;;;5081554;28;20040;-67
2021/10/05 04:40:23;;;;;;;11.07;5.38;;;9.50;99.90;;;;;;5082546;28;20136;-67
2021/10/05 04:42:49;;;;;;;7.20;5.68;;;9.50;99.90;;;;;;5084905;28;20048;-67
2021/10/05 04:45:15;;;;;;;6.60;5.75;;;9.50;99.90;;;;;;5086375;28;20097;-67
2021/10/05 04:47:41;;;;;;;11.82;5.72;;;9.40;99.90;;;;;;5069423;28;20053;-67
2021/10/05 04:50:08;;;;;;;6.60;5.30;;;9.40;99.90;;;;;;5082891;28;20075;-67
2021/10/05 04:52:34;;;;;;;8.13;5.80;;;9.50;99.90;;;;;;5081741;28;20391;-67
2021/10/05 04:55:01;;;;;;;8.93;5.25;;;9.40;99.90;;;;;;5083245;28;20052;-67
2021/10/05 04:57:27;;;;;;;8.07;5.75;;;9.40;99.90;;;;;;5113229;27;20511;-67
2021/10/05 04:59:52;;;;;;;7.53;5.13;;;9.40;99.90;;;;;;5079268;28;20040;-67
2021/10/05 05:02:18;;;;;;;6.07;5.47;;;9.40;99.90;;;;;;5087469;28;20063;-67
2021/10/05 05:04:44;;;;;;;7.90;5.70;;;9.40;99.90;;;;;;5087453;28;20031;-67
2021/10/05 05:07:09;;;;;;;7.07;5.85;;;9.50;99.90;;;;;;5083298;28;20048;-67
2021/10/05 05:09:35;;;;;;;6.57;5.75;;;9.50;99.90;;;;;;5084978;28;20106;-67
2021/10/05 05:12:00;;;;;;;8.40;5.22;;;9.40;99.90;;;;;;5082774;28;20054;-67
2021/10/05 05:14:27;;;;;;;8.27;5.78;;;9.40;99.90;;;;;;5085278;28;20127;-67
2021/10/05 05:16:52;;;;;;;6.75;5.65;;;9.40;99.90;;;;;;5082938;28;20036;-67
2021/10/05 05:19:18;;;;;;;7.10;5.88;;;9.50;99.90;;;;;;5077052;28;20036;-67
2021/10/05 05:21:44;;;;;;;9.73;5.93;;;9.40;99.90;;;;;;5075252;28;20044;-67
2021/10/05 05:24:09;;;;;;;7.45;5.80;;;9.40;99.90;;;;;;5080502;28;20036;-67
2021/10/05 05:26:35;;;;;;;7.63;5.95;;;9.30;99.90;;;;;;5078832;28;20038;-67
2021/10/05 05:29:01;;;;;;;9.20;6.40;;;9.40;99.90;;;;;;5108339;27;20048;-67
2021/10/05 05:31:26;;;;;;;10.25;6.72;;;9.30;99.90;;;;;;5084958;28;20042;-66
2021/10/05 05:33:52;;;;;;;9.23;5.90;;;9.30;99.90;;;;;;5078941;28;20085;-67
2021/10/05 05:36:17;;;;;;;7.38;6.10;;;9.30;99.90;;;;;;5077290;28;20051;-67
2021/10/05 05:38:43;;;;;;;9.52;6.15;;;9.30;99.90;;;;;;5077478;28;20045;-67
2021/10/05 05:41:09;;;;;;;10.35;5.75;;;9.20;99.90;;;;;;5077226;28;20085;-67
2021/10/05 05:43:34;;;;;;;11.07;5.70;;;9.20;99.90;;;;;;5060364;28;20036;-68
2021/10/05 05:46:00;;;;;;;7.97;5.55;;;9.30;99.90;;;;;;5078335;28;20196;-67
2021/10/05 05:48:26;;;;;;;8.40;6.15;;;9.30;99.90;;;;;;5078072;28;20059;-67
2021/10/05 05:50:51;;;;;;;7.75;5.97;;;9.30;99.90;;;;;;5082359;28;20041;-67
2021/10/05 05:53:18;;;;;;;7.38;5.80;;;9.20;99.90;;;;;;5084186;28;20032;-67
2021/10/05 05:55:44;;;;;;;8.35;5.72;;;9.20;99.90;;;;;;5075103;28;20116;-67
2021/10/05 05:58:12;;;;;;;7.07;5.88;;;9.20;99.90;;;;;;5079546;28;20612;-67
2021/10/05 06:00:38;;;;;;;7.43;5.57;;;9.30;99.90;;;;;;5085161;28;20510;-67
2021/10/05 06:03:04;;;;;;;9.85;6.13;;;9.20;99.90;;;;;;5081802;28;20545;-67
2021/10/05 06:05:30;;;;;;;8.10;6.53;;;9.30;99.90;;;;;;5083086;28;20044;-67
2021/10/05 06:07:56;;;;;;;6.35;5.63;;;9.30;99.90;;;;;;5078775;28;20377;-67
2021/10/05 06:10:22;;;;;;;8.68;5.22;;;9.30;99.90;;;;;;5079840;28;20048;-67
2021/10/05 06:12:48;;;;;;;7.80;5.25;;;9.30;99.90;;;;;;5084474;28;20032;-67
2021/10/05 06:15:17;;;;;;;7.95;5.95;;;9.30;99.90;;;;;;5080325;28;20134;-67
2021/10/05 06:17:44;;;;;;;8.25;5.63;;;9.40;99.90;;;;;;5079585;28;20393;-67
2021/10/05 06:20:15;;;;;;;8.60;5.38;;;9.50;99.90;;;;;;5079796;28;20050;-67
2021/10/05 06:22:42;;;;;;;5.20;4.55;;;9.50;99.90;;;;;;5079733;28;20036;-67
2021/10/05 06:25:14;;;;;;;6.05;5.07;;;9.60;99.90;;;;;;5082488;28;20040;-67
2021/10/05 06:27:40;;;;;;;7.25;4.82;;;9.80;99.90;;;;;;5082710;28;20444;-67
2021/10/05 06:30:07;;;;;;;4.82;4.38;;;9.90;99.90;;;;;;5078416;28;20037;-67
2021/10/05 06:32:33;;;;;;;8.60;4.47;;;10.00;99.90;;;;;;5082036;28;20109;-67
2021/10/05 06:34:59;;;;;;;5.75;3.90;;;10.00;99.90;;;;;;5080111;28;20040;-67
2021/10/05 06:37:25;;;;;;;5.47;3.78;;;10.10;99.90;;;;;;5076578;28;20044;-67
2021/10/05 06:39:51;;;;;;;5.82;4.15;;;10.20;99.90;;;;;;5082573;28;20035;-67
2021/10/05 06:42:17;;;;;;;4.95;3.88;;;10.30;99.90;;;;;;5087589;28;20044;-67
2021/10/05 06:44:43;;;;;;;9.40;4.25;;;10.40;99.90;;;;;;5077480;28;20127;-67
2021/10/05 06:47:09;;;;;;;5.03;4.13;;;10.50;99.90;;;;;;5074338;28;20044;-67
2021/10/05 06:49:34;;;;;;;7.07;4.32;;;10.60;99.90;;;;;;5074137;28;20093;-68
2021/10/05 06:52:01;;;;;;;4.30;3.38;;;10.80;99.90;;;;;;5077143;28;20477;-68
2021/10/05 06:54:27;;;;;;;4.45;3.90;;;10.80;99.90;;;;;;5076666;28;20043;-68
2021/10/05 06:56:53;;;;;;;7.07;3.72;;;10.90;99.90;;;;;;5077634;27;20040;-68
2021/10/05 06:59:19;;;;;;;4.47;3.60;;;10.90;99.90;;;;;;5074903;28;20047;-68
2021/10/05 07:01:45;;;;;;;5.63;4.00;;;10.80;99.90;;;;;;5073404;28;20035;-68
2021/10/05 07:04:10;;;;;;;4.60;3.60;;;11.00;99.90;;;;;;5072032;28;20048;-67
2021/10/05 07:06:37;;;;;;;7.90;3.50;;;11.00;99.90;;;;;;5078168;28;20051;-68
2021/10/05 07:09:04;;;;;;;4.78;3.47;;;11.00;99.90;;;;;;5069614;28;20048;-68
2021/10/05 07:11:31;;;;;;;5.57;3.83;;;11.00;99.90;;;;;;5070791;28;20047;-68
2021/10/05 07:13:57;;;;;;;3.67;3.15;;;11.10;99.90;;;;;;5102923;27;20040;-68
2021/10/05 07:16:22;;;;;;;6.47;3.67;;;11.10;99.90;;;;;;5072658;28;20028;-68
2021/10/05 07:18:48;;;;;;;4.03;3.70;;;11.20;99.90;;;;;;5073548;28;20040;-68
2021/10/05 07:21:14;;;;;;;4.50;3.53;;;11.10;99.90;;;;;;5073565;28;20039;-67
2021/10/05 07:23:40;;;;;;;5.18;3.80;;;11.20;99.90;;;;;;5070116;28;20061;-67
2021/10/05 07:26:06;;;;;;;5.85;4.20;;;11.20;99.90;;;;;;5073747;28;20044;-68
2021/10/05 07:28:31;;;;;;;4.55;3.70;;;11.30;99.90;;;;;;5077080;28;20040;-68
2021/10/05 07:30:57;;;;;;;6.65;3.70;;;11.30;99.90;;;;;;5073481;28;20161;-68
2021/10/05 07:33:25;;;;;;;6.30;3.42;;;11.40;99.90;;;;;;5076916;28;20032;-68
2021/10/05 07:35:51;;;;;;;5.78;3.30;;;11.40;99.90;;;;;;5080348;28;20051;-68
2021/10/05 07:38:17;;;;;;;3.65;3.38;;;11.50;99.90;;;;;;5073777;28;20071;-68
2021/10/05 07:40:43;;;;;;;3.85;3.30;;;11.60;99.90;;;;;;5075791;28;20402;-68
2021/10/05 07:43:09;;;;;;;3.75;2.50;;;11.60;99.90;;;;;;5076550;28;20474;-68
2021/10/05 07:45:36;;;;;;;2.97;2.78;;;11.60;99.90;;;;;;5078587;28;20044;-68
2021/10/05 07:48:03;;;;;;;5.05;3.30;;;11.70;99.90;;;;;;5077266;28;20542;-68
2021/10/05 07:50:29;;;;;;;4.38;3.03;;;11.70;99.90;;;;;;5072877;28;20047;-67
2021/10/05 07:52:54;;;;;;;4.53;3.10;;;11.70;99.90;;;;;;5073184;28;20039;-67
2021/10/05 07:55:20;;;;;;;3.92;3.30;;;11.70;99.90;;;;;;5071458;28;20469;-68
2021/10/05 07:57:46;;;;;;;3.30;2.88;;;11.80;99.90;;;;;;5073888;28;20044;-68
2021/10/05 08:00:12;;;;;;;5.00;2.53;;;11.80;99.90;;;;;;5076305;28;20031;-68
2021/10/05 08:02:38;;;;;;;2.80;2.35;;;11.90;99.90;;;;;;5077413;28;20060;-68
2021/10/05 08:05:07;;;;;;;4.55;2.58;;;11.90;99.90;;;;;;5079266;28;20142;-68
2021/10/05 08:07:33;;;;;;;6.28;2.63;;;11.90;99.90;;;;;;5075035;28;20047;-68
2021/10/05 08:09:59;;;;;;;4.32;3.28;;;11.90;99.90;;;;;;5072081;28;20043;-67
2021/10/05 08:12:25;;;;;;;5.32;3.08;;;11.90;99.90;;;;;;5078404;28;20139;-68
2021/10/05 08:14:52;;;;;;;4.57;2.97;;;12.00;99.90;;;;;;5072480;28;20096;-68
2021/10/05 08:17:18;;;;;;;5.72;3.40;;;12.00;99.90;;;;;;5072368;28;20091;-68
2021/10/05 08:19:45;;;;;;;5.78;3.70;;;12.00;99.90;;;;;;5074390;28;20490;-68
2021/10/05 08:22:11;;;;;;;12.18;3.72;;;12.10;99.90;;;;;;5072191;28;20039;-68
2021/10/05 08:24:37;;;;;;;6.25;3.08;;;12.20;99.90;;;;;;5073396;28;20585;-68
2021/10/05 08:27:05;;;;;;;4.25;3.10;;;12.20;99.90;;;;;;5072063;28;20093;-68
2021/10/05 08:29:37;;;;;;;6.30;2.63;;;12.20;99.90;;;;;;5079705;28;20051;-68
2021/10/05 08:32:04;;;;;;;3.13;2.72;;;12.30;99.90;;;;;;5074379;28;20032;-68
2021/10/05 08:34:30;;;;;;;4.55;3.00;;;12.40;99.90;;;;;;5075910;28;20051;-68
2021/10/05 08:36:56;;;;;;;6.32;3.20;;;12.50;99.90;;;;;;5071150;28;22048;-68
2021/10/05 08:39:22;;;;;;;3.05;2.80;;;12.70;99.90;;;;;;5073447;28;20040;-68
2021/10/05 08:41:48;;;;;;;2.67;2.10;;;12.80;99.90;;;;;;5088935;27;20048;-68
2021/10/05 08:44:16;;;;;;;3.80;2.35;;;12.90;99.90;;;;;;5076982;28;20047;-68
2021/10/05 08:46:42;;;;;;;3.30;2.40;;;13.10;99.90;;;;;;5071536;28;20052;-68
2021/10/05 08:49:08;;;;;;;5.07;2.53;;;13.20;99.90;;;;;;5075387;28;20054;-68
2021/10/05 08:51:35;;;;;;;6.35;2.90;;;13.40;99.90;;;;;;5071519;28;20040;-68
2021/10/05 08:54:01;;;;;;;5.10;2.22;;;13.60;99.90;;;;;;5072400;28;20383;-68
2021/10/05 08:56:27;;;;;;;2.70;1.95;;;13.80;99.90;;;;;;5071269;28;20096;-68
2021/10/05 08:58:52;;;;;;;5.80;2.47;;;13.90;99.90;;;;;;5078513;28;20109;-68
2021/10/05 09:01:18;;;;;;;3.33;1.80;;;13.90;99.90;;;;;;5079697;28;20044;-68
2021/10/05 09:03:52;;;;;;;1.98;1.70;;;14.10;99.90;;;;;;5078764;28;20041;-68
2021/10/05 09:06:19;;;;;;;4.47;2.13;;;14.20;99.90;;;;;;5074765;28;20504;-68
2021/10/05 09:08:46;;;;;;;3.47;2.03;;;14.20;99.90;;;;;;5077712;28;20045;-68
2021/10/05 09:11:16;;;;;;;2.85;2.03;;;14.20;99.90;;;;;;5071225;28;21331;-68
2021/10/05 09:13:45;;;;;;;4.03;2.03;;;14.20;99.90;;;;;;5074496;28;20048;-68
2021/10/05 09:16:22;;;;;;;5.47;2.05;;;14.30;99.90;;;;;;5066557;28;20062;-68
2021/10/05 09:19:08;;;;;;;2.83;1.70;;;14.40;99.90;;;;;;5101578;27;20104;-68
2021/10/05 09:21:55;;;;;;;5.38;2.40;;;14.40;99.90;;;;;;5071131;28;20533;-68
2021/10/05 09:24:28;;;;;;;2.55;1.65;;;14.40;99.90;;;;;;5073721;28;21460;-69
2021/10/05 09:26:59;;;;;;;2.97;1.85;;;14.50;99.90;;;;;;5074123;28;20048;-68
2021/10/05 09:29:36;;;;;;;2.83;1.90;;;14.60;99.90;;;;;;5071244;28;20040;-68
2021/10/05 09:32:14;;;;;;;1.98;1.77;;;14.60;99.90;;;;;;5068685;28;20051;-68
2021/10/05 09:34:45;;;;;;;3.28;2.00;;;14.70;99.90;;;;;;5079073;28;20041;-68
2021/10/05 09:37:22;;;;;;;2.72;2.20;;;14.70;99.90;;;;;;5078775;28;20064;-68
2021/10/05 09:40:12;;;;;;;6.55;2.45;;;14.80;99.90;;;;;;5077228;28;20160;-67
2021/10/05 09:42:41;;;;;;;2.55;1.90;;;14.90;99.90;;;;;;5072993;28;20106;-68
2021/10/05 09:45:09;;;;;;;3.55;2.05;;;15.10;99.90;;;;;;5073850;28;20799;-68
2021/10/05 09:47:38;;;;;;;3.88;1.52;;;15.20;99.90;;;;;;5074513;28;20058;-68
2021/10/05 09:50:16;;;;;;;12.27;2.42;;;15.30;99.90;;;;;;5085713;28;20044;-68
2021/10/05 09:52:45;;;;;;;1.65;1.33;;;15.40;99.90;;;;;;5078793;28;20076;-68
2021/10/05 09:55:13;;;;;;;3.78;1.90;;;15.50;99.90;;;;;;5073942;28;20079;-68
2021/10/05 09:57:39;;;;;;;2.17;1.60;;;15.50;99.90;;;;;;5077128;28;20027;-68
2021/10/05 10:00:07;;;;;;;2.80;1.25;;;15.50;99.90;;;;;;5073898;28;20040;-68
2021/10/05 10:02:37;;;;;;;2.60;1.60;;;15.40;99.90;;;;;;5077102;28;20031;-68
2021/10/05 10:05:06;;;;;;;3.75;1.52;;;15.40;99.90;;;;;;5082657;28;20093;-68
2021/10/05 10:07:35;;;;;;;3.03;1.73;;;15.40;99.90;;;;;;5078787;28;20044;-68
2021/10/05 10:10:01;;;;;;;2.90;1.33;;;15.50;99.90;;;;;;5077337;28;20043;-68
2021/10/05 10:12:27;;;;;;;3.30;1.63;;;15.60;99.90;;;;;;5078772;28;20052;-69
2021/10/05 10:14:53;;;;;;;1.92;1.00;;;15.60;99.90;;;;;;5076291;28;20543;-69
2021/10/05 10:17:25;;;;;;;4.47;1.52;;;15.70;99.90;;;;;;5072862;28;20056;-69
2021/10/05 10:19:51;;;;;;;3.97;1.02;;;15.70;99.90;;;;;;5072879;28;20449;-69
2021/10/05 10:22:18;;;;;;;3.67;1.05;;;15.80;99.90;;;;;;5073626;28;20097;-68
2021/10/05 10:24:57;;;;;;;4.05;1.00;;;15.80;99.90;;;;;;5074424;28;20129;-69
2021/10/05 10:27:23;;;;;;;2.55;1.17;;;15.80;99.90;;;;;;5076748;28;20116;-68
2021/10/05 10:29:51;;;;;;;2.03;1.15;;;15.90;99.90;;;;;;5077756;28;20044;-68
2021/10/05 10:32:24;;;;;;;5.03;1.50;;;15.90;99.90;;;;;;5074066;28;20048;-68
2021/10/05 10:35:19;;;;;;;3.05;0.98;;;15.90;99.90;;;;;;5073577;28;20075;-68
2021/10/05 10:37:48;;;;;;;4.32;1.10;;;16.00;99.90;;;;;;5057394;28;20143;-68
2021/10/05 10:40:16;;;;;;;4.50;1.60;;;16.30;99.90;;;;;;5072662;28;20052;-68
2021/10/05 10:42:42;;;;;;;4.13;1.17;;;16.50;99.90;;;;;;5073462;28;20336;-68
2021/10/05 10:45:19;;;;;;;4.15;1.35;;;16.90;99.90;;;;;;5076122;28;20044;-68
2021/10/05 10:47:49;;;;;;;5.28;1.10;;;17.20;99.90;;;;;;5077347;28;20059;-69
2021/10/05 10:50:16;;;;;;;3.75;1.13;;;17.40;99.90;;;;;;5072806;28;20118;-69
2021/10/05 10:52:47;;;;;;;1.88;1.30;;;17.50;99.90;;;;;;5082226;28;20047;-68
2021/10/05 10:55:16;;;;;;;2.78;1.23;;;17.50;99.90;;;;;;5075805;28;20040;-69
2021/10/05 10:57:54;;;;;;;4.72;1.25;;;17.70;99.90;;;;;;5083197;28;20063;-68
2021/10/05 11:00:25;;;;;;;2.40;1.30;;;17.70;99.90;;;;;;5079262;28;20123;-68
2021/10/05 11:02:59;;;;;;;5.57;1.65;;;17.70;99.90;;;;;;5079296;28;20075;-68
2021/10/05 11:05:31;;;;;;;3.30;1.15;;;17.60;99.90;;;;;;5079065;28;20036;-69
2021/10/05 11:07:57;;;;;;;4.78;1.33;;;17.70;99.90;;;;;;5076955;28;20051;-69
2021/10/05 11:10:32;;;;;;;4.72;1.40;;;17.70;99.90;;;;;;5079119;28;20090;-69
2021/10/05 11:13:01;;;;;;;5.07;1.60;;;17.70;99.90;;;;;;5079864;28;20044;-69
2021/10/05 11:15:34;;;;;;;3.38;1.00;;;17.80;99.90;;;;;;5112106;27;20101;-69
2021/10/05 11:18:05;;;;;;;7.47;1.08;;;17.80;99.90;;;;;;5077098;28;20054;-68
2021/10/05 11:20:31;;;;;;;3.92;1.10;;;17.90;99.90;;;;;;5073372;28;20039;-69
2021/10/05 11:22:59;;;;;;;3.17;1.08;;;18.00;99.90;;;;;;5070843;28;20036;-69
2021/10/05 11:25:25;;;;;;;5.00;1.15;;;18.20;99.90;;;;;;5069993;28;20051;-69
2021/10/05 11:27:50;;;;;;;2.75;0.65;;;18.30;99.90;;;;;;5071901;28;20045;-69
2021/10/05 11:30:16;;;;;;;3.95;1.00;;;18.50;99.90;;;;;;5071287;28;20039;-69
2021/10/05 11:32:48;;;;;;;2.95;0.70;;;18.70;99.90;;;;;;5071827;28;20047;-69
2021/10/05 11:35:13;;;;;;;1.75;0.73;;;18.70;99.90;;;;;;5101942;27;20066;-69
2021/10/05 11:37:39;;;;;;;3.40;0.90;;;18.90;99.90;;;;;;5070472;28;20414;-69
2021/10/05 11:40:05;;;;;;;1.75;0.30;;;18.90;99.90;;;;;;5072874;28;20371;-69
2021/10/05 11:42:31;;;;;;;4.80;0.70;;;19.00;99.90;;;;;;5075309;28;20054;-69
2021/10/05 11:45:01;;;;;;;5.70;1.35;;;19.00;99.90;;;;;;5075268;28;20032;-69
2021/10/05 11:47:28;;;;;;;4.18;0.70;;;19.00;99.90;;;;;;5071399;28;20055;-68
2021/10/05 11:50:00;;;;;;;6.00;0.98;;;19.00;99.90;;;;;;5073475;28;21453;-69
2021/10/05 11:52:31;;;;;;;2.05;0.70;;;19.10;99.90;;;;;;5072757;28;20796;-69
2021/10/05 11:54:58;;;;;;;4.05;0.90;;;19.20;99.90;;;;;;5071862;28;20052;-69
2021/10/05 11:57:33;;;;;;;4.90;0.80;;;19.20;99.90;;;;;;5099729;27;20131;-69
2021/10/05 12:00:03;;;;;;;4.18;0.80;;;19.10;99.90;;;;;;5072096;28;20114;-69
2021/10/05 12:02:28;;;;;;;2.38;0.88;;;19.00;99.90;;;;;;5069353;28;20119;-68
2021/10/05 12:04:55;;;;;;;2.65;0.75;;;19.10;99.90;;;;;;5069014;28;22894;-69
2021/10/05 12:07:26;;;;;;;3.70;0.90;;;19.10;99.90;;;;;;5071908;28;20057;-68
2021/10/05 12:09:59;;;;;;;2.95;0.80;;;18.90;99.90;;;;;;5073892;28;20063;-68
2021/10/05 12:12:32;;;;;;;8.57;0.90;;;18.90;99.90;;;;;;5076651;28;20387;-68
2021/10/05 12:15:07;;;;;;;2.17;0.57;;;18.80;99.90;;;;;;5073985;28;20130;-68
2021/10/05 12:17:33;;;;;;;1.55;0.80;;;18.90;99.90;;;;;;5070659;28;20044;-68
2021/10/05 12:20:05;;;;;;;2.25;0.80;;;18.70;99.90;;;;;;5076207;28;20035;-68
2021/10/05 12:22:32;;;;;;;4.85;1.52;;;18.60;99.90;;;;;;5073362;28;20158;-68
2021/10/05 12:25:02;;;;;;;4.45;1.20;;;18.40;99.90;;;;;;5072497;28;20494;-68
2021/10/05 12:27:30;;;;;;;3.38;0.70;;;18.20;99.90;;;;;;5074731;28;20699;-68
2021/10/05 12:30:07;;;;;;;3.15;0.77;;;18.00;99.90;;;;;;5101560;27;20131;-68
2021/10/05 12:32:39;;;;;;;3.20;0.70;;;17.80;99.90;;;;;;5076373;28;20136;-68
2021/10/05 12:35:27;;;;;;;3.05;0.90;;;17.70;99.90;;;;;;5074796;28;20075;-68
2021/10/05 12:38:17;;;;;;;7.25;1.25;;;17.50;99.90;;;;;;5069563;28;20043;-68
2021/10/05 12:40:43;;;;;;;1.80;0.70;;;17.50;99.90;;;;;;5068766;28;20048;-68
2021/10/05 12:43:10;;;;;;;5.85;1.13;;;17.40;99.90;;;;;;5076762;28;20094;-68
2021/10/05 12:45:37;;;;;;;2.38;0.50;;;17.30;99.90;;;;;;5087365;28;20043;-68
2021/10/05 12:48:04;;;;;;;3.65;0.60;;;17.30;99.90;;;;;;5074884;28;20162;-68
2021/10/05 12:50:43;;;;;;;6.07;0.50;;;17.20;99.90;;;;;;5071305;28;20402;-68